createdAt,value
2022-08-28T00:01:40.306Z,100083.80
2022-08-28T00:06:43.313Z,100082.40
2022-08-28T00:11:47.414Z,100086.40
2022-08-28T00:16:52.606Z,100087.60
2022-08-28T00:21:55.633Z,100086.60
2022-08-28T00:27:17.137Z,100084.00
2022-08-28T00:32:25.447Z,100080.40
2022-08-28T00:37:29.426Z,100080.00
2022-08-28T00:42:36.486Z,100064.40
2022-08-28T00:47:40.308Z,100068.00
2022-08-28T00:52:50.774Z,100064.40
2022-08-28T00:58:00.653Z,100059.40
2022-08-28T01:03:06.823Z,100060.60
2022-08-28T01:08:10.029Z,100062.80
2022-08-28T01:13:16.533Z,100059.60
2022-08-28T01:18:22.188Z,100059.20
2022-08-28T01:23:55.602Z,100055.60
2022-08-28T01:29:00.897Z,100060.60
2022-08-28T01:34:05.619Z,100051.40
2022-08-28T01:39:15.342Z,100050.80
2022-08-28T01:44:24.913Z,100059.60
2022-08-28T01:49:29.563Z,100073.00
2022-08-28T01:54:32.576Z,100063.80
2022-08-28T01:59:36.393Z,100067.60
2022-08-28T02:04:39.519Z,100075.40
2022-08-28T02:09:43.070Z,100073.00
2022-08-28T02:14:46.362Z,100068.20
2022-08-28T02:19:49.460Z,100067.20
2022-08-28T02:24:52.935Z,100061.20
2022-08-28T02:29:56.015Z,100056.60
2022-08-28T02:34:59.110Z,100057.00
2022-08-28T02:40:03.764Z,100059.40
2022-08-28T02:45:10.910Z,100054.80
2022-08-28T02:50:19.031Z,100054.00
2022-08-28T02:55:22.947Z,100051.40
2022-08-28T03:00:26.859Z,100057.00
2022-08-28T03:05:29.870Z,100056.00
2022-08-28T03:10:32.955Z,100053.80
2022-08-28T03:15:36.000Z,100052.80
2022-08-28T03:20:40.176Z,100049.40
2022-08-28T03:25:43.227Z,100050.60
2022-08-28T03:30:46.484Z,100048.80
2022-08-28T03:35:50.599Z,100047.00
2022-08-28T03:40:54.758Z,100049.40
2022-08-28T03:46:04.252Z,100047.80
2022-08-28T03:51:10.745Z,100052.20
2022-08-28T03:56:22.137Z,100048.00
2022-08-28T04:01:26.077Z,100052.00
2022-08-28T04:06:30.295Z,100049.80
2022-08-28T04:11:44.378Z,100051.00
2022-08-28T04:16:48.728Z,100058.00
2022-08-28T04:21:52.374Z,100064.00
2022-08-28T04:26:55.454Z,100059.40
2022-08-28T04:31:58.819Z,100059.00
2022-08-28T04:37:01.867Z,100054.20
2022-08-28T04:42:05.230Z,100051.80
2022-08-28T04:47:08.391Z,100051.00
2022-08-28T04:52:11.957Z,100039.60
2022-08-28T04:57:15.112Z,100039.80
2022-08-28T05:02:18.211Z,100042.80
2022-08-28T05:07:21.407Z,100039.60
2022-08-28T05:12:25.104Z,100038.80
2022-08-28T05:17:29.330Z,100037.60
2022-08-28T05:22:35.670Z,100043.20
2022-08-28T05:27:40.460Z,100046.20
2022-08-28T05:32:43.526Z,100049.20
2022-08-28T05:37:46.717Z,100052.60
2022-08-28T05:42:50.883Z,100044.40
2022-08-28T05:47:54.220Z,100038.80
2022-08-28T05:52:58.207Z,100042.20
2022-08-28T05:58:21.218Z,100042.00
2022-08-28T06:03:24.963Z,100043.40
2022-08-28T06:08:28.942Z,100042.60
2022-08-28T06:13:32.768Z,100044.40
2022-08-28T06:18:37.580Z,100048.00
2022-08-28T06:23:41.405Z,100046.00
2022-08-28T06:28:44.454Z,100045.60
2022-08-28T06:33:47.475Z,100048.00
2022-08-28T06:38:51.191Z,100050.40
2022-08-28T06:43:56.186Z,100052.60
2022-08-28T06:48:59.223Z,100051.80
2022-08-28T06:54:03.903Z,100048.40
2022-08-28T06:59:06.988Z,100055.60
2022-08-28T07:04:12.573Z,100053.00
2022-08-28T07:09:15.789Z,100054.60
2022-08-28T07:14:19.132Z,100051.00
2022-08-28T07:19:22.163Z,100055.60
2022-08-28T07:24:26.656Z,100054.40
2022-08-28T07:29:29.739Z,100059.40
2022-08-28T07:34:32.830Z,100054.00
2022-08-28T07:39:35.917Z,100061.20
2022-08-28T07:44:51.018Z,100056.80
2022-08-28T07:49:54.014Z,100055.00
2022-08-28T07:54:57.553Z,100055.40
2022-08-28T08:00:00.710Z,100050.60
2022-08-28T08:05:05.498Z,100047.80
2022-08-28T08:10:15.094Z,100046.60
2022-08-28T08:15:23.715Z,100042.60
2022-08-28T08:20:27.735Z,100035.20
2022-08-28T08:25:30.904Z,100041.60
2022-08-28T08:30:36.749Z,100043.00
2022-08-28T08:35:40.176Z,100046.00
2022-08-28T08:40:43.344Z,100041.80
2022-08-28T08:45:49.718Z,100047.00
2022-08-28T08:50:54.278Z,100041.00
2022-08-28T08:55:58.473Z,100038.00
2022-08-28T09:01:44.933Z,100039.00
2022-08-28T09:06:56.728Z,100046.80
2022-08-28T09:12:08.038Z,100044.80
2022-08-28T09:17:16.662Z,100047.80
2022-08-28T09:22:20.314Z,100045.20
2022-08-28T09:27:33.409Z,100047.00
2022-08-28T09:33:01.030Z,100048.80
2022-08-28T09:38:27.538Z,100046.20
2022-08-28T09:43:33.720Z,100047.40
2022-08-28T09:48:40.286Z,100047.20
2022-08-28T09:53:52.333Z,100038.00
2022-08-28T09:59:01.444Z,100038.20
2022-08-28T10:04:29.180Z,100034.80
2022-08-28T10:10:09.551Z,100036.00
2022-08-28T10:15:43.472Z,100041.20
2022-08-28T10:21:01.627Z,100039.40
2022-08-28T10:26:37.441Z,100035.20
2022-08-28T10:31:47.421Z,100031.60
2022-08-28T10:37:26.491Z,100027.40
2022-08-28T10:42:39.736Z,100031.40
2022-08-28T10:48:12.646Z,100034.40
2022-08-28T10:53:26.714Z,100029.60
2022-08-28T10:58:35.991Z,100028.80
2022-08-28T11:03:51.678Z,100034.20
2022-08-28T11:09:22.566Z,100037.00
2022-08-28T11:14:32.658Z,100035.60
2022-08-28T11:20:10.396Z,100034.00
2022-08-28T11:25:41.924Z,100031.60
2022-08-28T11:30:49.965Z,100032.20
2022-08-28T11:35:53.102Z,100029.40
2022-08-28T11:41:09.803Z,100028.00
2022-08-28T11:46:31.658Z,100026.40
2022-08-28T11:52:15.838Z,100023.40
2022-08-28T11:57:47.323Z,100027.00
2022-08-28T12:03:14.815Z,100025.40
2022-08-28T12:08:49.099Z,100033.20
2022-08-28T12:13:53.166Z,100029.00
2022-08-28T12:19:01.390Z,100026.40
2022-08-28T12:24:21.013Z,100026.00
2022-08-28T12:29:33.514Z,100037.20
2022-08-28T12:35:03.758Z,100030.60
2022-08-28T12:40:22.074Z,100029.40
2022-08-28T12:45:38.070Z,100023.40
2022-08-28T12:50:41.270Z,100026.80
2022-08-28T12:55:47.209Z,100021.60
2022-08-28T13:00:59.366Z,100010.00
2022-08-28T13:06:08.250Z,100011.20
2022-08-28T13:11:11.373Z,100017.80
2022-08-28T13:16:37.344Z,100015.80
2022-08-28T13:22:03.468Z,100016.20
2022-08-28T13:27:09.049Z,100011.40
2022-08-28T13:32:18.220Z,100007.80
2022-08-28T13:37:48.230Z,100009.60
2022-08-28T13:42:59.240Z,100003.20
2022-08-28T13:48:02.679Z,100005.00
2022-08-28T13:53:09.448Z,100001.00
2022-08-28T13:58:14.112Z,100000.80
2022-08-28T14:03:38.571Z,99999.00
2022-08-28T14:08:44.295Z,99995.00
2022-08-28T14:13:55.808Z,99994.80
2022-08-28T14:19:04.896Z,99989.80
2022-08-28T14:24:09.051Z,99987.80
2022-08-28T14:29:16.058Z,99985.60
2022-08-28T14:34:23.662Z,99987.20
2022-08-28T14:39:28.158Z,99983.40
2022-08-28T14:44:31.321Z,99986.40
2022-08-28T14:49:34.427Z,99988.00
2022-08-28T14:54:40.643Z,99986.60
2022-08-28T14:59:45.468Z,99985.00
2022-08-28T15:04:48.916Z,99990.00
2022-08-28T15:09:52.229Z,99987.80
2022-08-28T15:14:57.157Z,99987.60
2022-08-28T15:20:01.225Z,99980.60
2022-08-28T15:25:06.095Z,99979.60
2022-08-28T15:30:10.249Z,99979.00
2022-08-28T15:35:13.324Z,99979.80
2022-08-28T15:40:34.877Z,99972.60
2022-08-28T15:45:40.281Z,99979.00
2022-08-28T15:50:43.993Z,99976.20
2022-08-28T15:55:47.018Z,99972.80
2022-08-28T16:00:50.311Z,99981.20
2022-08-28T16:05:53.558Z,99998.40
2022-08-28T16:10:56.826Z,100011.40
2022-08-28T16:16:00.021Z,100028.60
2022-08-28T16:21:05.237Z,100038.40
2022-08-28T16:26:10.469Z,100057.40
2022-08-28T16:31:19.262Z,100068.40
2022-08-28T16:36:25.398Z,100089.80
2022-08-28T16:41:28.598Z,100097.80
2022-08-28T16:46:33.322Z,100110.40
2022-08-28T16:51:36.548Z,100114.80
2022-08-28T16:56:40.259Z,100115.00
2022-08-28T17:01:43.482Z,100108.80
2022-08-28T17:06:46.774Z,100094.80
2022-08-28T17:11:52.144Z,100082.60
2022-08-28T17:16:55.402Z,100073.40
2022-08-28T17:22:17.316Z,100077.00
2022-08-28T17:27:22.599Z,100078.80
2022-08-28T17:32:26.573Z,100085.60
2022-08-28T17:37:30.040Z,100087.20
2022-08-28T17:42:33.096Z,100090.40
2022-08-28T17:47:36.807Z,100095.40
2022-08-28T17:52:40.741Z,100099.80
2022-08-28T17:57:43.754Z,100101.40
2022-08-28T18:02:55.149Z,100115.60
2022-08-28T18:07:59.913Z,100122.00
2022-08-28T18:13:05.860Z,100135.40
2022-08-28T18:18:10.964Z,100134.40
2022-08-28T18:23:14.455Z,100133.20
2022-08-28T18:28:22.532Z,100139.20
2022-08-28T18:33:25.803Z,100149.80
2022-08-28T18:38:30.036Z,100147.80
2022-08-28T18:43:34.578Z,100144.00
2022-08-28T18:48:38.376Z,100150.20
2022-08-28T18:53:43.913Z,100146.40
2022-08-28T18:58:47.974Z,100146.60
2022-08-28T19:03:51.172Z,100149.20
2022-08-28T19:08:54.287Z,100146.00
2022-08-28T19:14:03.540Z,100143.40
2022-08-28T19:19:07.668Z,100137.60
2022-08-28T19:24:13.638Z,100136.60
2022-08-28T19:29:17.296Z,100138.80
2022-08-28T19:34:20.726Z,100138.60
2022-08-28T19:39:25.437Z,100137.20
2022-08-28T19:44:28.751Z,100129.80
2022-08-28T19:49:31.914Z,100127.60
2022-08-28T19:54:40.973Z,100135.00
2022-08-28T19:59:44.989Z,100139.60
2022-08-28T20:04:48.224Z,100144.60
2022-08-28T20:09:52.224Z,100149.00
2022-08-28T20:15:00.064Z,100146.60
2022-08-28T20:20:08.678Z,100152.00
2022-08-28T20:25:12.302Z,100152.40
2022-08-28T20:30:18.246Z,100167.20
2022-08-28T20:35:22.043Z,100169.80
2022-08-28T20:40:25.751Z,100178.80
2022-08-28T20:45:29.365Z,100180.60
2022-08-28T20:50:32.347Z,100175.80
2022-08-28T20:55:35.387Z,100180.60
2022-08-28T21:00:38.798Z,100192.60
2022-08-28T21:05:47.612Z,100199.40
2022-08-28T21:10:52.973Z,100202.20
2022-08-28T21:15:55.997Z,100213.80
2022-08-28T21:20:59.132Z,100234.80
2022-08-28T21:26:02.395Z,100260.40
2022-08-28T21:31:13.834Z,100276.40
2022-08-28T21:36:18.944Z,100290.60
2022-08-28T21:41:21.973Z,100299.80
2022-08-28T21:46:25.570Z,100311.20
2022-08-28T21:51:28.927Z,100318.40
2022-08-28T21:56:33.043Z,100336.40
2022-08-28T22:01:36.195Z,100338.60
2022-08-28T22:06:40.654Z,100335.40
2022-08-28T22:11:43.689Z,100324.60
2022-08-28T22:16:46.948Z,100311.20
2022-08-28T22:22:08.685Z,100298.00
2022-08-28T22:27:13.645Z,100297.20
2022-08-28T22:32:16.989Z,100292.40
2022-08-28T22:37:20.194Z,100275.60
2022-08-28T22:42:23.365Z,100257.20
2022-08-28T22:47:26.456Z,100248.00
2022-08-28T22:52:29.578Z,100232.40
2022-08-28T22:57:32.805Z,100220.40
2022-08-28T23:02:36.197Z,100210.20
2022-08-28T23:07:39.630Z,100205.60
2022-08-28T23:12:43.642Z,100207.00
2022-08-28T23:17:47.668Z,100216.40
2022-08-28T23:22:56.403Z,100228.40
2022-08-28T23:28:14.614Z,100221.00
2022-08-28T23:33:23.815Z,100227.80
2022-08-28T23:38:27.759Z,100247.60
2022-08-28T23:43:31.685Z,100259.20
2022-08-28T23:48:35.230Z,100257.60
2022-08-28T23:53:40.988Z,100252.00
2022-08-28T23:58:45.530Z,100269.80
